Main page
METAR-TAF:

METAR-TAF

Airports :

Sleipner, Norway

Oil platform

latitude: 58-22-00N, longitude: 001-54-25E, elevation: 50 m

Current weather observation

The report was made 19 minutes ago, at 01:50 UTC
Wind 24 kt from the Northeast
Temperature 13°C
Humidity 82%
Pressure 1003 hPa
Visibility 10 km or more

METAR: ENSL 290150Z AUTO 04024KT 9999NDV FEW053/// OVC075/// 13/10 Q1003 W12/S3

Time: 04:09 (02:09 UTC)

Forecast

The report was made 15 hours and 9 minutes ago, at 11:00 UTC
Forecast valid from 28 at 12 UTC to 28 at 17 UTC
Wind 18 kt from the East/Northeast
Visibility 10 km or more
Scattered clouds at a height of 2000 ft

TAF: ENSL 281100Z 2812/2817 06018KT 9999 SCT020

Weather observations and forecasts of more than 4000 airports (METAR and TAF reports).

The available stations are represented by yellow and red dots on the map.

Hover mouse over dot to see the name of the station.

Then click to see weather observations and forecasts.

To change the map : click on the green buttons with a black cross to zoom in, on the green button with a dash to zoom out, or on the green arrows for adjacent maps.


METAR-TAF: